ADDS METAR Data INFO
IDs: Format: Raw Decoded Include TAF

Data at: 0214 UTC 18 Jan 2018

KVCT 180151Z 36003KT 10SM OVC065 02/M08 A3064 RMK AO2 SLP376 T00171083